Historique des mesures à Cassis (13260), France
Quotidien Résumé Fevrier 28, 2017 Unités:  Métrique    US   Métrique/US
« Précédent (Jour)
Suivant (Jour) »
Quotidien Hebdomadaire Mensuel Annuel Période au choix
  Maximum: Minimum: Moyenne:
Température: TemperatureC °C 9.6 °C 12.3 °C
Point de rosée: DewpointC °C 2.8 °C 8.5 °C
Humidité: Humidity % 62 % 74 %
Vitesse du vent: 0 km/h 0 km/h 6.8 km/h
Rafales: 0 km/h - -
Vent:- - WSW
Pression: PressurehPa hPa 1001.9 hPa -
Précipitations: 1.5 mm    
Historical Graphs
 
 
Mesures pour : Fevrier 28, 2017
Heure Temperature Point de rosée Pression Vent Vitesse du vent Rafales Humidité Pluie (par heure) Conditions
TemperatureC °C DewpointC °C PressurehPa hPa Calm     Humidity % HourlyPrecipMM mm SoftwareType W/m2
00:10 13.5 °C 11.0 °C 1007.0 hPa SSE 5.6 km/h 5.6 km/h 85 % 0.0 mm open2300-1.11 W/m2
01:11 13.5 °C 11.0 °C 1006.3 hPa WNW 6.4 km/h 9.8 km/h 85 % 0.0 mm open2300-1.11 W/m2
02:10 13.6 °C 11.1 °C 1005.6 hPa Calm   6.4 km/h 85 % 0.0 mm open2300-1.11 W/m2
03:11 13.5 °C 11.0 °C 1005.0 hPa Calm   4.7 km/h 85 % 0.0 mm open2300-1.11 W/m2
04:10 13.6 °C 11.1 °C 1003.9 hPa Calm   18.7 km/h 85 % 0.0 mm open2300-1.11 W/m2
05:11 13.4 °C 10.9 °C 1003.9 hPa SW 2.3 km/h 17.9 km/h 85 % 0.0 mm open2300-1.11 W/m2
06:10 12.5 °C 9.7 °C 1003.9 hPa North 6.9 km/h 12.2 km/h 83 % 0.0 mm open2300-1.11 W/m2
07:11 11.6 °C 8.8 °C 1003.6 hPa Calm   2.9 km/h 83 % 0.0 mm open2300-1.11 W/m2
08:10 11.8 °C 9.0 °C 1003.6 hPa Calm     83 % 0.0 mm open2300-1.11 W/m2
09:11 13.2 °C 10.2 °C 1003.6 hPa Calm   5.6 km/h 82 % 0.0 mm open2300-1.11 W/m2
10:10 13.6 °C 10.6 °C 1003.6 hPa Calm     82 % 0.0 mm open2300-1.11 W/m2
11:11 14.1 °C 10.9 °C 1003.6 hPa Calm     81 % 0.0 mm open2300-1.11 W/m2
12:10 14.8 °C 11.2 °C 1003.3 hPa Calm   4.7 km/h 79 % 0.0 mm open2300-1.11 W/m2
13:11 15.4 °C 11.6 °C 1002.9 hPa Calm   5.6 km/h 78 % 0.0 mm open2300-1.11 W/m2
14:10 14.8 °C 10.4 °C 1002.3 hPa West 4.2 km/h 9.3 km/h 75 % 0.0 mm open2300-1.11 W/m2
15:11 13.9 °C 8.9 °C 1002.3 hPa NNW 17.4 km/h 17.4 km/h 72 % 0.0 mm open2300-1.11 W/m2
16:10 14.1 °C 9.1 °C 1001.9 hPa WSW 9.3 km/h 9.3 km/h 72 % 0.0 mm open2300-1.11 W/m2
17:11 13.9 °C 8.9 °C 1002.9 hPa South 4.2 km/h 17.9 km/h 72 % 0.0 mm open2300-1.11 W/m2
18:10 11.0 °C 6.4 °C 1003.9 hPa NNW 26.2 km/h 26.2 km/h 73 % 1.5 mm open2300-1.11 W/m2
19:11 11.1 °C 6.7 °C 1005.3 hPa NW 11.6 km/h 15.6 km/h 74 % 0.0 mm open2300-1.11 W/m2
20:10 10.6 °C 4.9 °C 1005.3 hPa NW 9.3 km/h 29.5 km/h 68 % 0.0 mm open2300-1.11 W/m2
21:11 10.1 °C 4.4 °C 1006.7 hPa NW 19.2 km/h 19.2 km/h 68 % 0.0 mm open2300-1.11 W/m2
22:10 9.8 °C 2.8 °C 1007.3 hPa ENE 15.6 km/h 46.8 km/h 62 % 0.0 mm open2300-1.11 W/m2
23:11 9.6 °C 3.1 °C 1007.7 hPa WNW 30.7 km/h 30.7 km/h 64 % 0.0 mm open2300-1.11 W/m2
Observations météo à CASSIS
WU-History script by Weather Underground - 1 mb